sensor_id;sensor_type;location;lat;lon;timestamp;temperature;humidity
41060;DHT22;26811;53.160;8.202;2023-01-29T00:02:59;2.70;99.90
41060;DHT22;26811;53.160;8.202;2023-01-29T00:08:01;2.70;99.90
41060;DHT22;26811;53.160;8.202;2023-01-29T00:13:01;2.80;99.90
41060;DHT22;26811;53.160;8.202;2023-01-29T00:18:02;2.80;99.90
41060;DHT22;26811;53.160;8.202;2023-01-29T00:23:02;2.80;99.90
41060;DHT22;26811;53.160;8.202;2023-01-29T00:28:03;2.80;99.90
41060;DHT22;26811;53.160;8.202;2023-01-29T00:33:03;2.90;99.90
41060;DHT22;26811;53.160;8.202;2023-01-29T00:38:04;2.90;99.90
41060;DHT22;26811;53.160;8.202;2023-01-29T00:43:05;2.90;99.90
41060;DHT22;26811;53.160;8.202;2023-01-29T00:48:23;2.90;99.90
41060;DHT22;26811;53.160;8.202;2023-01-29T00:53:24;2.90;99.90
41060;DHT22;26811;53.160;8.202;2023-01-29T00:58:24;2.90;99.90
41060;DHT22;26811;53.160;8.202;2023-01-29T01:03:34;2.90;99.90
41060;DHT22;26811;53.160;8.202;2023-01-29T01:08:41;2.90;99.90
41060;DHT22;26811;53.160;8.202;2023-01-29T01:14:00;2.90;99.90
41060;DHT22;26811;53.160;8.202;2023-01-29T01:19:02;3.00;99.90
41060;DHT22;26811;53.160;8.202;2023-01-29T01:24:03;2.90;99.90
41060;DHT22;26811;53.160;8.202;2023-01-29T01:29:05;2.90;99.90
41060;DHT22;26811;53.160;8.202;2023-01-29T01:34:06;2.90;99.90
41060;DHT22;26811;53.160;8.202;2023-01-29T01:39:06;2.90;99.90
41060;DHT22;26811;53.160;8.202;2023-01-29T01:44:48;2.90;99.90
41060;DHT22;26811;53.160;8.202;2023-01-29T01:49:27;2.80;99.90
41060;DHT22;26811;53.160;8.202;2023-01-29T01:54:29;2.80;99.90
41060;DHT22;26811;53.160;8.202;2023-01-29T01:59:32;2.80;99.90
41060;DHT22;26811;53.160;8.202;2023-01-29T02:04:33;2.70;99.90
41060;DHT22;26811;53.160;8.202;2023-01-29T02:10:12;2.70;99.90
41060;DHT22;26811;53.160;8.202;2023-01-29T02:15:15;2.70;99.90
41060;DHT22;26811;53.160;8.202;2023-01-29T02:20:27;2.60;99.90
41060;DHT22;26811;53.160;8.202;2023-01-29T02:41:39;2.70;99.90
41060;DHT22;26811;53.160;8.202;2023-01-29T02:46:55;2.70;99.90
41060;DHT22;26811;53.160;8.202;2023-01-29T02:57:24;2.80;99.90
41060;DHT22;26811;53.160;8.202;2023-01-29T03:02:32;2.80;99.90
41060;DHT22;26811;53.160;8.202;2023-01-29T03:07:40;2.80;99.90
41060;DHT22;26811;53.160;8.202;2023-01-29T03:12:52;2.80;99.90
41060;DHT22;26811;53.160;8.202;2023-01-29T03:17:59;2.80;99.90
41060;DHT22;26811;53.160;8.202;2023-01-29T03:23:06;2.90;99.90
41060;DHT22;26811;53.160;8.202;2023-01-29T03:28:08;2.80;99.90
41060;DHT22;26811;53.160;8.202;2023-01-29T03:33:33;2.80;99.90
41060;DHT22;26811;53.160;8.202;2023-01-29T03:38:34;2.90;99.90
41060;DHT22;26811;53.160;8.202;2023-01-29T03:49:00;2.90;99.90
41060;DHT22;26811;53.160;8.202;2023-01-29T03:54:24;3.00;99.90
41060;DHT22;26811;53.160;8.202;2023-01-29T04:04:37;3.00;99.90
41060;DHT22;26811;53.160;8.202;2023-01-29T04:14:49;3.10;99.90
41060;DHT22;26811;53.160;8.202;2023-01-29T04:19:52;3.10;99.90
41060;DHT22;26811;53.160;8.202;2023-01-29T04:24:53;3.20;99.90
41060;DHT22;26811;53.160;8.202;2023-01-29T04:30:06;3.20;99.90
41060;DHT22;26811;53.160;8.202;2023-01-29T04:40:48;3.30;99.90
41060;DHT22;26811;53.160;8.202;2023-01-29T04:46:18;3.30;99.90
41060;DHT22;26811;53.160;8.202;2023-01-29T04:52:04;3.30;99.90
41060;DHT22;26811;53.160;8.202;2023-01-29T04:57:28;3.30;99.90
41060;DHT22;26811;53.160;8.202;2023-01-29T05:02:30;3.30;99.90
41060;DHT22;26811;53.160;8.202;2023-01-29T05:07:34;3.30;99.90
41060;DHT22;26811;53.160;8.202;2023-01-29T05:12:37;3.30;99.90
41060;DHT22;26811;53.160;8.202;2023-01-29T05:17:39;3.30;99.90
41060;DHT22;26811;53.160;8.202;2023-01-29T05:22:41;3.20;99.90
41060;DHT22;26811;53.160;8.202;2023-01-29T05:27:42;3.30;99.90
41060;DHT22;26811;53.160;8.202;2023-01-29T05:33:02;3.30;99.90
41060;DHT22;26811;53.160;8.202;2023-01-29T05:38:03;3.30;99.90
41060;DHT22;26811;53.160;8.202;2023-01-29T05:43:04;3.30;99.90
41060;DHT22;26811;53.160;8.202;2023-01-29T05:48:05;3.30;99.90
41060;DHT22;26811;53.160;8.202;2023-01-29T05:53:05;3.10;99.90
41060;DHT22;26811;53.160;8.202;2023-01-29T05:58:06;3.20;99.90
41060;DHT22;26811;53.160;8.202;2023-01-29T06:03:06;3.20;99.90
41060;DHT22;26811;53.160;8.202;2023-01-29T06:08:07;3.10;99.90
41060;DHT22;26811;53.160;8.202;2023-01-29T06:13:08;3.20;99.90
41060;DHT22;26811;53.160;8.202;2023-01-29T06:18:08;3.20;99.90
41060;DHT22;26811;53.160;8.202;2023-01-29T06:23:09;3.20;99.90
41060;DHT22;26811;53.160;8.202;2023-01-29T06:28:10;3.10;99.90
41060;DHT22;26811;53.160;8.202;2023-01-29T06:33:10;3.10;99.90
41060;DHT22;26811;53.160;8.202;2023-01-29T06:38:11;3.20;99.90
41060;DHT22;26811;53.160;8.202;2023-01-29T06:43:11;3.10;99.90
41060;DHT22;26811;53.160;8.202;2023-01-29T06:48:12;3.10;99.90
41060;DHT22;26811;53.160;8.202;2023-01-29T06:53:12;3.20;99.90
41060;DHT22;26811;53.160;8.202;2023-01-29T06:58:13;3.20;99.90
41060;DHT22;26811;53.160;8.202;2023-01-29T07:03:13;3.20;99.90
41060;DHT22;26811;53.160;8.202;2023-01-29T07:08:14;3.20;99.90
41060;DHT22;26811;53.160;8.202;2023-01-29T07:13:15;3.20;99.90
41060;DHT22;26811;53.160;8.202;2023-01-29T07:18:16;3.20;99.90
41060;DHT22;26811;53.160;8.202;2023-01-29T07:23:16;3.20;99.90
41060;DHT22;26811;53.160;8.202;2023-01-29T07:28:17;3.30;99.90
41060;DHT22;26811;53.160;8.202;2023-01-29T07:33:18;3.20;99.90
41060;DHT22;26811;53.160;8.202;2023-01-29T07:38:19;3.20;99.90
41060;DHT22;26811;53.160;8.202;2023-01-29T07:43:19;3.20;99.90
41060;DHT22;26811;53.160;8.202;2023-01-29T07:48:20;3.20;99.90
41060;DHT22;26811;53.160;8.202;2023-01-29T07:53:20;3.30;99.90
41060;DHT22;26811;53.160;8.202;2023-01-29T07:58:21;3.30;99.90
41060;DHT22;26811;53.160;8.202;2023-01-29T08:03:22;3.30;99.90
41060;DHT22;26811;53.160;8.202;2023-01-29T08:08:22;3.30;99.90
41060;DHT22;26811;53.160;8.202;2023-01-29T08:13:23;3.40;99.90
41060;DHT22;26811;53.160;8.202;2023-01-29T08:18:24;3.60;99.90
41060;DHT22;26811;53.160;8.202;2023-01-29T08:23:24;3.70;99.90
41060;DHT22;26811;53.160;8.202;2023-01-29T08:28:25;3.70;99.90
41060;DHT22;26811;53.160;8.202;2023-01-29T08:33:25;3.80;99.90
41060;DHT22;26811;53.160;8.202;2023-01-29T08:38:28;3.80;99.90
41060;DHT22;26811;53.160;8.202;2023-01-29T08:43:29;3.90;99.90
41060;DHT22;26811;53.160;8.202;2023-01-29T08:48:29;3.90;99.90
41060;DHT22;26811;53.160;8.202;2023-01-29T08:53:30;4.00;99.90
41060;DHT22;26811;53.160;8.202;2023-01-29T08:58:31;4.00;99.90
41060;DHT22;26811;53.160;8.202;2023-01-29T09:03:31;3.90;99.90
41060;DHT22;26811;53.160;8.202;2023-01-29T09:08:32;3.90;99.90
41060;DHT22;26811;53.160;8.202;2023-01-29T09:13:33;3.90;99.90
41060;DHT22;26811;53.160;8.202;2023-01-29T09:18:34;3.90;99.90
41060;DHT22;26811;53.160;8.202;2023-01-29T09:23:34;3.90;99.90
41060;DHT22;26811;53.160;8.202;2023-01-29T09:28:35;3.90;99.90
41060;DHT22;26811;53.160;8.202;2023-01-29T09:33:35;3.90;99.90
41060;DHT22;26811;53.160;8.202;2023-01-29T09:38:36;4.00;99.90
41060;DHT22;26811;53.160;8.202;2023-01-29T09:43:46;4.00;99.90
41060;DHT22;26811;53.160;8.202;2023-01-29T09:48:58;4.10;99.90
41060;DHT22;26811;53.160;8.202;2023-01-29T09:59:15;4.30;99.90
41060;DHT22;26811;53.160;8.202;2023-01-29T10:10:07;4.70;99.90
41060;DHT22;26811;53.160;8.202;2023-01-29T10:15:23;4.70;99.90
41060;DHT22;26811;53.160;8.202;2023-01-29T10:25:39;4.70;99.90
41060;DHT22;26811;53.160;8.202;2023-01-29T10:30:50;4.80;99.90
41060;DHT22;26811;53.160;8.202;2023-01-29T10:35:59;5.00;99.90
41060;DHT22;26811;53.160;8.202;2023-01-29T11:01:40;5.20;99.90
41060;DHT22;26811;53.160;8.202;2023-01-29T11:06:41;5.20;99.90
41060;DHT22;26811;53.160;8.202;2023-01-29T11:16:47;5.50;99.90
41060;DHT22;26811;53.160;8.202;2023-01-29T11:21:59;5.50;99.90
41060;DHT22;26811;53.160;8.202;2023-01-29T11:27:00;5.30;99.90
41060;DHT22;26811;53.160;8.202;2023-01-29T11:32:07;5.00;99.90
41060;DHT22;26811;53.160;8.202;2023-01-29T11:37:16;4.90;99.90
41060;DHT22;26811;53.160;8.202;2023-01-29T11:42:21;5.00;99.90
41060;DHT22;26811;53.160;8.202;2023-01-29T11:47:27;5.10;99.90
41060;DHT22;26811;53.160;8.202;2023-01-29T11:52:36;5.10;99.90
41060;DHT22;26811;53.160;8.202;2023-01-29T11:57:41;5.20;99.90
41060;DHT22;26811;53.160;8.202;2023-01-29T12:02:45;5.20;99.90
41060;DHT22;26811;53.160;8.202;2023-01-29T12:07:49;5.20;99.90
41060;DHT22;26811;53.160;8.202;2023-01-29T12:12:50;5.20;99.90
41060;DHT22;26811;53.160;8.202;2023-01-29T12:29:20;5.30;99.90
41060;DHT22;26811;53.160;8.202;2023-01-29T12:39:42;5.10;99.90
41060;DHT22;26811;53.160;8.202;2023-01-29T12:44:47;5.20;99.90
41060;DHT22;26811;53.160;8.202;2023-01-29T12:49:56;5.10;99.90
41060;DHT22;26811;53.160;8.202;2023-01-29T12:55:02;5.10;99.90
41060;DHT22;26811;53.160;8.202;2023-01-29T13:00:13;5.10;99.90
41060;DHT22;26811;53.160;8.202;2023-01-29T13:05:22;5.10;99.90
41060;DHT22;26811;53.160;8.202;2023-01-29T13:10:28;5.10;99.90
41060;DHT22;26811;53.160;8.202;2023-01-29T13:15:38;5.00;99.90
41060;DHT22;26811;53.160;8.202;2023-01-29T13:20:39;4.90;99.90
41060;DHT22;26811;53.160;8.202;2023-01-29T13:25:40;4.80;99.90
41060;DHT22;26811;53.160;8.202;2023-01-29T13:30:40;4.80;99.90
41060;DHT22;26811;53.160;8.202;2023-01-29T13:35:42;4.80;99.90
41060;DHT22;26811;53.160;8.202;2023-01-29T13:40:47;4.80;99.90
41060;DHT22;26811;53.160;8.202;2023-01-29T13:45:50;4.80;99.90
41060;DHT22;26811;53.160;8.202;2023-01-29T13:50:52;4.70;99.90
41060;DHT22;26811;53.160;8.202;2023-01-29T13:55:53;4.70;99.90
41060;DHT22;26811;53.160;8.202;2023-01-29T14:00:53;4.80;99.90
41060;DHT22;26811;53.160;8.202;2023-01-29T14:21:33;4.70;99.90
41060;DHT22;26811;53.160;8.202;2023-01-29T14:36:55;4.80;99.90
41060;DHT22;26811;53.160;8.202;2023-01-29T14:41:57;4.80;99.90
41060;DHT22;26811;53.160;8.202;2023-01-29T14:46:58;4.70;99.90
41060;DHT22;26811;53.160;8.202;2023-01-29T14:52:00;4.70;99.90
41060;DHT22;26811;53.160;8.202;2023-01-29T14:57:03;4.70;99.90
41060;DHT22;26811;53.160;8.202;2023-01-29T15:02:17;4.60;99.90
41060;DHT22;26811;53.160;8.202;2023-01-29T15:07:29;4.50;99.90
41060;DHT22;26811;53.160;8.202;2023-01-29T15:12:44;4.40;99.90
41060;DHT22;26811;53.160;8.202;2023-01-29T15:17:54;4.30;99.90
41060;DHT22;26811;53.160;8.202;2023-01-29T15:22:56;4.20;99.90
41060;DHT22;26811;53.160;8.202;2023-01-29T15:27:57;4.10;99.90
41060;DHT22;26811;53.160;8.202;2023-01-29T15:32:58;4.00;99.90
41060;DHT22;26811;53.160;8.202;2023-01-29T15:38:20;4.00;99.90
41060;DHT22;26811;53.160;8.202;2023-01-29T15:43:23;3.90;99.90
41060;DHT22;26811;53.160;8.202;2023-01-29T15:48:31;3.90;99.90
41060;DHT22;26811;53.160;8.202;2023-01-29T15:53:46;3.80;99.90
41060;DHT22;26811;53.160;8.202;2023-01-29T15:58:48;3.80;99.90
41060;DHT22;26811;53.160;8.202;2023-01-29T16:03:49;3.80;99.90
41060;DHT22;26811;53.160;8.202;2023-01-29T16:08:52;3.70;99.90
41060;DHT22;26811;53.160;8.202;2023-01-29T16:13:53;3.70;99.90
41060;DHT22;26811;53.160;8.202;2023-01-29T16:18:54;3.70;99.90
41060;DHT22;26811;53.160;8.202;2023-01-29T16:23:58;3.70;99.90
41060;DHT22;26811;53.160;8.202;2023-01-29T16:29:04;3.70;99.90
41060;DHT22;26811;53.160;8.202;2023-01-29T16:34:25;3.70;99.90
41060;DHT22;26811;53.160;8.202;2023-01-29T16:39:31;3.60;99.90
41060;DHT22;26811;53.160;8.202;2023-01-29T16:44:37;3.50;99.90
41060;DHT22;26811;53.160;8.202;2023-01-29T16:54:41;3.30;99.90
41060;DHT22;26811;53.160;8.202;2023-01-29T16:59:42;3.30;99.90
41060;DHT22;26811;53.160;8.202;2023-01-29T17:04:45;3.30;99.90
41060;DHT22;26811;53.160;8.202;2023-01-29T17:09:49;3.30;99.90
41060;DHT22;26811;53.160;8.202;2023-01-29T17:14:59;3.30;99.90
41060;DHT22;26811;53.160;8.202;2023-01-29T17:20:14;3.20;99.90
41060;DHT22;26811;53.160;8.202;2023-01-29T17:25:15;3.20;99.90
41060;DHT22;26811;53.160;8.202;2023-01-29T17:30:20;3.30;99.90
41060;DHT22;26811;53.160;8.202;2023-01-29T17:35:22;3.30;99.90
41060;DHT22;26811;53.160;8.202;2023-01-29T17:40:51;3.30;99.90
41060;DHT22;26811;53.160;8.202;2023-01-29T17:45:53;3.30;99.90
41060;DHT22;26811;53.160;8.202;2023-01-29T17:50:59;3.30;99.90
41060;DHT22;26811;53.160;8.202;2023-01-29T17:56:01;3.30;99.90
41060;DHT22;26811;53.160;8.202;2023-01-29T18:01:01;3.30;99.90
41060;DHT22;26811;53.160;8.202;2023-01-29T18:06:04;3.30;99.90
41060;DHT22;26811;53.160;8.202;2023-01-29T18:11:07;3.40;99.90
41060;DHT22;26811;53.160;8.202;2023-01-29T18:16:13;3.30;99.90
41060;DHT22;26811;53.160;8.202;2023-01-29T18:21:14;3.30;99.90
41060;DHT22;26811;53.160;8.202;2023-01-29T18:26:15;3.30;99.90
41060;DHT22;26811;53.160;8.202;2023-01-29T18:31:16;3.40;99.90
41060;DHT22;26811;53.160;8.202;2023-01-29T18:36:17;3.30;99.90
41060;DHT22;26811;53.160;8.202;2023-01-29T18:41:17;3.40;99.90
41060;DHT22;26811;53.160;8.202;2023-01-29T18:46:19;3.30;99.90
41060;DHT22;26811;53.160;8.202;2023-01-29T18:51:23;3.40;99.90
41060;DHT22;26811;53.160;8.202;2023-01-29T18:56:23;3.40;99.90
41060;DHT22;26811;53.160;8.202;2023-01-29T19:01:24;3.40;99.90
41060;DHT22;26811;53.160;8.202;2023-01-29T19:06:26;3.50;99.90
41060;DHT22;26811;53.160;8.202;2023-01-29T19:11:27;3.50;99.90
41060;DHT22;26811;53.160;8.202;2023-01-29T19:16:27;3.50;99.90
41060;DHT22;26811;53.160;8.202;2023-01-29T19:21:28;3.50;99.90
41060;DHT22;26811;53.160;8.202;2023-01-29T19:26:29;3.50;99.90
41060;DHT22;26811;53.160;8.202;2023-01-29T19:31:33;3.60;99.90
41060;DHT22;26811;53.160;8.202;2023-01-29T19:36:34;3.60;99.90
41060;DHT22;26811;53.160;8.202;2023-01-29T19:41:35;3.60;99.90
41060;DHT22;26811;53.160;8.202;2023-01-29T19:46:36;3.60;99.90
41060;DHT22;26811;53.160;8.202;2023-01-29T19:51:37;3.70;99.90
41060;DHT22;26811;53.160;8.202;2023-01-29T19:56:40;3.80;99.90
41060;DHT22;26811;53.160;8.202;2023-01-29T20:01:40;3.80;99.90
41060;DHT22;26811;53.160;8.202;2023-01-29T20:06:41;3.80;99.90
41060;DHT22;26811;53.160;8.202;2023-01-29T20:11:41;3.80;99.90
41060;DHT22;26811;53.160;8.202;2023-01-29T20:16:42;3.90;99.90
41060;DHT22;26811;53.160;8.202;2023-01-29T20:21:45;3.90;99.90
41060;DHT22;26811;53.160;8.202;2023-01-29T20:26:46;3.90;99.90
41060;DHT22;26811;53.160;8.202;2023-01-29T20:31:46;3.90;99.90
41060;DHT22;26811;53.160;8.202;2023-01-29T20:36:47;3.90;99.90
41060;DHT22;26811;53.160;8.202;2023-01-29T20:41:47;4.00;99.90
41060;DHT22;26811;53.160;8.202;2023-01-29T20:46:51;4.00;99.90
41060;DHT22;26811;53.160;8.202;2023-01-29T20:51:54;4.00;99.90
41060;DHT22;26811;53.160;8.202;2023-01-29T20:56:55;4.10;99.90
41060;DHT22;26811;53.160;8.202;2023-01-29T21:01:56;4.10;99.90
41060;DHT22;26811;53.160;8.202;2023-01-29T21:06:56;4.10;99.90
41060;DHT22;26811;53.160;8.202;2023-01-29T21:11:57;4.10;99.90
41060;DHT22;26811;53.160;8.202;2023-01-29T21:16:58;4.20;99.90
41060;DHT22;26811;53.160;8.202;2023-01-29T21:21:58;4.20;99.90
41060;DHT22;26811;53.160;8.202;2023-01-29T21:26:59;4.20;99.90
41060;DHT22;26811;53.160;8.202;2023-01-29T21:31:59;4.20;99.90
41060;DHT22;26811;53.160;8.202;2023-01-29T21:37:00;4.30;99.90
41060;DHT22;26811;53.160;8.202;2023-01-29T21:42:01;4.30;99.90
41060;DHT22;26811;53.160;8.202;2023-01-29T21:47:20;4.30;99.90
41060;DHT22;26811;53.160;8.202;2023-01-29T21:52:21;4.30;99.90
41060;DHT22;26811;53.160;8.202;2023-01-29T21:57:22;4.30;99.90
41060;DHT22;26811;53.160;8.202;2023-01-29T22:02:25;4.30;99.90
41060;DHT22;26811;53.160;8.202;2023-01-29T22:07:29;4.20;99.90
41060;DHT22;26811;53.160;8.202;2023-01-29T22:12:30;4.20;99.90
41060;DHT22;26811;53.160;8.202;2023-01-29T22:17:30;4.10;99.90
41060;DHT22;26811;53.160;8.202;2023-01-29T22:22:31;4.10;99.90
41060;DHT22;26811;53.160;8.202;2023-01-29T22:27:32;4.00;99.90
41060;DHT22;26811;53.160;8.202;2023-01-29T22:32:33;4.00;99.90
41060;DHT22;26811;53.160;8.202;2023-01-29T22:37:33;4.10;99.90
41060;DHT22;26811;53.160;8.202;2023-01-29T22:42:34;4.10;99.90
41060;DHT22;26811;53.160;8.202;2023-01-29T22:47:34;4.20;99.90
41060;DHT22;26811;53.160;8.202;2023-01-29T22:52:35;4.20;99.90
41060;DHT22;26811;53.160;8.202;2023-01-29T22:57:39;4.20;99.90
41060;DHT22;26811;53.160;8.202;2023-01-29T23:02:39;4.30;99.90
41060;DHT22;26811;53.160;8.202;2023-01-29T23:07:40;4.30;99.90
41060;DHT22;26811;53.160;8.202;2023-01-29T23:12:40;4.30;99.90
41060;DHT22;26811;53.160;8.202;2023-01-29T23:17:41;4.30;99.90
41060;DHT22;26811;53.160;8.202;2023-01-29T23:22:41;4.40;99.90
41060;DHT22;26811;53.160;8.202;2023-01-29T23:27:42;4.50;99.90
41060;DHT22;26811;53.160;8.202;2023-01-29T23:32:42;4.50;99.90
41060;DHT22;26811;53.160;8.202;2023-01-29T23:37:43;4.50;99.90
41060;DHT22;26811;53.160;8.202;2023-01-29T23:42:43;4.60;99.90
41060;DHT22;26811;53.160;8.202;2023-01-29T23:47:44;4.70;99.90
41060;DHT22;26811;53.160;8.202;2023-01-29T23:52:44;4.70;99.90
41060;DHT22;26811;53.160;8.202;2023-01-29T23:57:45;4.70;99.90
